sensor_id;sensor_type;location;lat;lon;timestamp;P1;durP1;ratioP1;P2;durP2;ratioP2
31402;SDS011;18039;52.188;21.024;2022-10-16T00:01:29;16.27;;;10.52;;
31402;SDS011;18039;52.188;21.024;2022-10-16T00:03:58;17.02;;;11.65;;
31402;SDS011;18039;52.188;21.024;2022-10-16T00:06:26;18.23;;;11.15;;
31402;SDS011;18039;52.188;21.024;2022-10-16T00:08:58;18.92;;;11.27;;
31402;SDS011;18039;52.188;21.024;2022-10-16T00:11:27;22.33;;;12.13;;
31402;SDS011;18039;52.188;21.024;2022-10-16T00:14:05;20.40;;;11.32;;
31402;SDS011;18039;52.188;21.024;2022-10-16T00:16:38;20.48;;;12.48;;
31402;SDS011;18039;52.188;21.024;2022-10-16T00:19:05;21.92;;;12.10;;
31402;SDS011;18039;52.188;21.024;2022-10-16T00:21:33;19.13;;;11.93;;
31402;SDS011;18039;52.188;21.024;2022-10-16T00:24:02;22.52;;;12.13;;
31402;SDS011;18039;52.188;21.024;2022-10-16T00:26:32;25.40;;;12.55;;
31402;SDS011;18039;52.188;21.024;2022-10-16T00:29:01;24.23;;;11.63;;
31402;SDS011;18039;52.188;21.024;2022-10-16T00:31:29;20.83;;;12.65;;
31402;SDS011;18039;52.188;21.024;2022-10-16T00:33:56;22.27;;;12.70;;
31402;SDS011;18039;52.188;21.024;2022-10-16T00:36:24;19.80;;;12.25;;
31402;SDS011;18039;52.188;21.024;2022-10-16T00:38:53;21.55;;;12.55;;
31402;SDS011;18039;52.188;21.024;2022-10-16T00:41:22;20.58;;;13.07;;
31402;SDS011;18039;52.188;21.024;2022-10-16T00:43:52;21.33;;;12.82;;
31402;SDS011;18039;52.188;21.024;2022-10-16T00:49:00;24.92;;;14.13;;
31402;SDS011;18039;52.188;21.024;2022-10-16T00:51:33;23.98;;;13.63;;
31402;SDS011;18039;52.188;21.024;2022-10-16T00:54:13;22.77;;;13.00;;
31402;SDS011;18039;52.188;21.024;2022-10-16T00:56:44;22.45;;;13.65;;
31402;SDS011;18039;52.188;21.024;2022-10-16T00:59:20;22.40;;;12.95;;
31402;SDS011;18039;52.188;21.024;2022-10-16T01:01:52;25.45;;;13.63;;
31402;SDS011;18039;52.188;21.024;2022-10-16T01:04:20;24.50;;;13.65;;
31402;SDS011;18039;52.188;21.024;2022-10-16T01:18:26;20.73;;;13.40;;
31402;SDS011;18039;52.188;21.024;2022-10-16T01:21:05;22.85;;;13.18;;
31402;SDS011;18039;52.188;21.024;2022-10-16T01:28:51;26.58;;;14.32;;
31402;SDS011;18039;52.188;21.024;2022-10-16T01:31:25;23.52;;;13.65;;
31402;SDS011;18039;52.188;21.024;2022-10-16T01:34:06;26.15;;;13.80;;
31402;SDS011;18039;52.188;21.024;2022-10-16T01:36:41;23.33;;;13.77;;
31402;SDS011;18039;52.188;21.024;2022-10-16T01:39:19;22.77;;;13.45;;
31402;SDS011;18039;52.188;21.024;2022-10-16T01:41:51;26.42;;;13.77;;
31402;SDS011;18039;52.188;21.024;2022-10-16T01:44:26;22.77;;;14.13;;
31402;SDS011;18039;52.188;21.024;2022-10-16T01:47:16;24.42;;;14.05;;
31402;SDS011;18039;52.188;21.024;2022-10-16T01:49:48;22.45;;;14.07;;
31402;SDS011;18039;52.188;21.024;2022-10-16T01:52:18;21.48;;;14.00;;
31402;SDS011;18039;52.188;21.024;2022-10-16T01:54:50;24.05;;;13.82;;
31402;SDS011;18039;52.188;21.024;2022-10-16T01:57:20;24.02;;;14.88;;
31402;SDS011;18039;52.188;21.024;2022-10-16T01:59:53;24.55;;;14.75;;
31402;SDS011;18039;52.188;21.024;2022-10-16T02:02:26;27.55;;;14.43;;
31402;SDS011;18039;52.188;21.024;2022-10-16T02:04:57;24.42;;;14.30;;
31402;SDS011;18039;52.188;21.024;2022-10-16T02:07:29;25.67;;;14.55;;
31402;SDS011;18039;52.188;21.024;2022-10-16T02:09:56;30.52;;;14.45;;
31402;SDS011;18039;52.188;21.024;2022-10-16T02:12:25;24.45;;;15.68;;
31402;SDS011;18039;52.188;21.024;2022-10-16T02:14:55;27.80;;;14.50;;
31402;SDS011;18039;52.188;21.024;2022-10-16T02:17:22;26.13;;;15.00;;
31402;SDS011;18039;52.188;21.024;2022-10-16T02:19:50;22.67;;;14.90;;
31402;SDS011;18039;52.188;21.024;2022-10-16T02:22:29;26.88;;;15.48;;
31402;SDS011;18039;52.188;21.024;2022-10-16T02:27:41;23.80;;;14.50;;
31402;SDS011;18039;52.188;21.024;2022-10-16T02:33:09;28.98;;;15.60;;
31402;SDS011;18039;52.188;21.024;2022-10-16T02:35:40;28.02;;;16.33;;
31402;SDS011;18039;52.188;21.024;2022-10-16T02:38:08;26.73;;;15.68;;
31402;SDS011;18039;52.188;21.024;2022-10-16T02:40:41;26.70;;;14.88;;
31402;SDS011;18039;52.188;21.024;2022-10-16T02:43:09;27.08;;;15.20;;
31402;SDS011;18039;52.188;21.024;2022-10-16T02:45:37;25.25;;;14.65;;
31402;SDS011;18039;52.188;21.024;2022-10-16T02:48:04;31.48;;;15.05;;
31402;SDS011;18039;52.188;21.024;2022-10-16T02:50:32;29.13;;;16.15;;
31402;SDS011;18039;52.188;21.024;2022-10-16T02:52:59;26.25;;;16.27;;
31402;SDS011;18039;52.188;21.024;2022-10-16T02:55:27;24.30;;;15.52;;
31402;SDS011;18039;52.188;21.024;2022-10-16T02:57:54;29.52;;;17.15;;
31402;SDS011;18039;52.188;21.024;2022-10-16T03:00:22;27.52;;;15.45;;
31402;SDS011;18039;52.188;21.024;2022-10-16T03:02:49;34.17;;;17.25;;
31402;SDS011;18039;52.188;21.024;2022-10-16T03:05:17;30.38;;;15.07;;
31402;SDS011;18039;52.188;21.024;2022-10-16T03:07:44;28.27;;;16.17;;
31402;SDS011;18039;52.188;21.024;2022-10-16T03:10:11;29.98;;;16.08;;
31402;SDS011;18039;52.188;21.024;2022-10-16T03:12:38;24.70;;;15.40;;
31402;SDS011;18039;52.188;21.024;2022-10-16T03:15:05;30.13;;;17.65;;
31402;SDS011;18039;52.188;21.024;2022-10-16T03:17:33;28.30;;;16.83;;
31402;SDS011;18039;52.188;21.024;2022-10-16T03:20:01;25.25;;;15.05;;
31402;SDS011;18039;52.188;21.024;2022-10-16T03:22:29;27.02;;;16.45;;
31402;SDS011;18039;52.188;21.024;2022-10-16T03:24:56;29.00;;;16.52;;
31402;SDS011;18039;52.188;21.024;2022-10-16T03:27:23;26.33;;;16.17;;
31402;SDS011;18039;52.188;21.024;2022-10-16T03:29:51;25.42;;;15.60;;
31402;SDS011;18039;52.188;21.024;2022-10-16T03:32:18;27.10;;;15.55;;
31402;SDS011;18039;52.188;21.024;2022-10-16T03:34:46;25.23;;;15.43;;
31402;SDS011;18039;52.188;21.024;2022-10-16T03:37:13;30.30;;;16.02;;
31402;SDS011;18039;52.188;21.024;2022-10-16T03:39:40;25.23;;;15.18;;
31402;SDS011;18039;52.188;21.024;2022-10-16T03:42:08;23.25;;;13.88;;
31402;SDS011;18039;52.188;21.024;2022-10-16T03:44:35;25.77;;;14.60;;
31402;SDS011;18039;52.188;21.024;2022-10-16T03:47:02;27.95;;;15.32;;
31402;SDS011;18039;52.188;21.024;2022-10-16T03:49:29;28.17;;;15.10;;
31402;SDS011;18039;52.188;21.024;2022-10-16T03:51:56;22.85;;;14.38;;
31402;SDS011;18039;52.188;21.024;2022-10-16T03:54:23;27.13;;;14.85;;
31402;SDS011;18039;52.188;21.024;2022-10-16T03:56:50;21.88;;;14.07;;
31402;SDS011;18039;52.188;21.024;2022-10-16T03:59:17;23.23;;;14.77;;
31402;SDS011;18039;52.188;21.024;2022-10-16T04:01:44;23.40;;;14.30;;
31402;SDS011;18039;52.188;21.024;2022-10-16T04:04:11;21.52;;;13.68;;
31402;SDS011;18039;52.188;21.024;2022-10-16T04:06:39;22.90;;;13.90;;
31402;SDS011;18039;52.188;21.024;2022-10-16T04:09:07;22.80;;;13.85;;
31402;SDS011;18039;52.188;21.024;2022-10-16T04:11:34;29.90;;;13.88;;
31402;SDS011;18039;52.188;21.024;2022-10-16T04:14:02;24.38;;;14.40;;
31402;SDS011;18039;52.188;21.024;2022-10-16T04:16:29;27.02;;;15.73;;
31402;SDS011;18039;52.188;21.024;2022-10-16T04:18:56;26.92;;;14.23;;
31402;SDS011;18039;52.188;21.024;2022-10-16T04:21:23;23.55;;;14.57;;
31402;SDS011;18039;52.188;21.024;2022-10-16T04:23:51;22.63;;;13.57;;
31402;SDS011;18039;52.188;21.024;2022-10-16T04:26:18;23.77;;;14.02;;
31402;SDS011;18039;52.188;21.024;2022-10-16T04:28:45;24.73;;;14.05;;
31402;SDS011;18039;52.188;21.024;2022-10-16T04:31:12;23.35;;;13.98;;
31402;SDS011;18039;52.188;21.024;2022-10-16T04:33:42;24.65;;;14.63;;
31402;SDS011;18039;52.188;21.024;2022-10-16T04:36:10;21.60;;;13.88;;
31402;SDS011;18039;52.188;21.024;2022-10-16T04:38:37;27.65;;;15.57;;
31402;SDS011;18039;52.188;21.024;2022-10-16T04:41:06;22.85;;;13.40;;
31402;SDS011;18039;52.188;21.024;2022-10-16T04:43:34;21.20;;;14.02;;
31402;SDS011;18039;52.188;21.024;2022-10-16T04:46:02;23.00;;;13.65;;
31402;SDS011;18039;52.188;21.024;2022-10-16T04:48:31;25.77;;;14.35;;
31402;SDS011;18039;52.188;21.024;2022-10-16T04:50:59;22.77;;;13.95;;
31402;SDS011;18039;52.188;21.024;2022-10-16T04:53:26;20.77;;;13.18;;
31402;SDS011;18039;52.188;21.024;2022-10-16T04:55:53;22.15;;;13.63;;
31402;SDS011;18039;52.188;21.024;2022-10-16T04:58:22;23.10;;;14.13;;
31402;SDS011;18039;52.188;21.024;2022-10-16T05:00:50;23.40;;;13.95;;
31402;SDS011;18039;52.188;21.024;2022-10-16T05:03:17;22.77;;;14.10;;
31402;SDS011;18039;52.188;21.024;2022-10-16T05:05:44;24.40;;;13.63;;
31402;SDS011;18039;52.188;21.024;2022-10-16T05:08:13;24.52;;;13.55;;
31402;SDS011;18039;52.188;21.024;2022-10-16T05:10:41;26.77;;;14.32;;
31402;SDS011;18039;52.188;21.024;2022-10-16T05:13:09;22.45;;;14.35;;
31402;SDS011;18039;52.188;21.024;2022-10-16T05:15:36;23.25;;;14.00;;
31402;SDS011;18039;52.188;21.024;2022-10-16T05:18:03;21.83;;;13.45;;
31402;SDS011;18039;52.188;21.024;2022-10-16T05:20:30;22.52;;;13.85;;
31402;SDS011;18039;52.188;21.024;2022-10-16T05:22:57;21.55;;;13.70;;
31402;SDS011;18039;52.188;21.024;2022-10-16T05:25:25;22.15;;;14.30;;
31402;SDS011;18039;52.188;21.024;2022-10-16T05:27:52;24.63;;;14.30;;
31402;SDS011;18039;52.188;21.024;2022-10-16T05:30:19;23.95;;;13.60;;
31402;SDS011;18039;52.188;21.024;2022-10-16T05:32:50;22.13;;;13.85;;
31402;SDS011;18039;52.188;21.024;2022-10-16T05:35:18;25.80;;;14.00;;
31402;SDS011;18039;52.188;21.024;2022-10-16T05:37:45;24.83;;;14.55;;
31402;SDS011;18039;52.188;21.024;2022-10-16T05:40:13;22.25;;;14.13;;
31402;SDS011;18039;52.188;21.024;2022-10-16T05:42:41;21.88;;;12.82;;
31402;SDS011;18039;52.188;21.024;2022-10-16T05:45:09;26.83;;;14.75;;
31402;SDS011;18039;52.188;21.024;2022-10-16T05:47:37;21.10;;;13.23;;
31402;SDS011;18039;52.188;21.024;2022-10-16T05:50:04;23.38;;;15.95;;
31402;SDS011;18039;52.188;21.024;2022-10-16T05:52:32;22.95;;;14.05;;
31402;SDS011;18039;52.188;21.024;2022-10-16T05:54:59;25.23;;;14.48;;
31402;SDS011;18039;52.188;21.024;2022-10-16T05:57:27;26.35;;;14.68;;
31402;SDS011;18039;52.188;21.024;2022-10-16T05:59:54;19.73;;;13.77;;
31402;SDS011;18039;52.188;21.024;2022-10-16T06:02:21;20.98;;;13.35;;
31402;SDS011;18039;52.188;21.024;2022-10-16T06:04:48;23.73;;;13.40;;
31402;SDS011;18039;52.188;21.024;2022-10-16T06:07:15;25.50;;;14.60;;
31402;SDS011;18039;52.188;21.024;2022-10-16T06:09:42;22.33;;;13.48;;
31402;SDS011;18039;52.188;21.024;2022-10-16T06:12:10;27.92;;;14.68;;
31402;SDS011;18039;52.188;21.024;2022-10-16T06:14:37;25.15;;;13.77;;
31402;SDS011;18039;52.188;21.024;2022-10-16T06:17:04;21.20;;;12.82;;
31402;SDS011;18039;52.188;21.024;2022-10-16T06:19:31;22.75;;;13.13;;
31402;SDS011;18039;52.188;21.024;2022-10-16T06:21:58;26.92;;;15.20;;
31402;SDS011;18039;52.188;21.024;2022-10-16T06:24:25;21.17;;;13.15;;
31402;SDS011;18039;52.188;21.024;2022-10-16T06:26:53;21.85;;;13.30;;
31402;SDS011;18039;52.188;21.024;2022-10-16T06:29:19;21.35;;;13.32;;
31402;SDS011;18039;52.188;21.024;2022-10-16T06:31:47;20.48;;;13.27;;
31402;SDS011;18039;52.188;21.024;2022-10-16T06:34:14;23.13;;;14.77;;
31402;SDS011;18039;52.188;21.024;2022-10-16T06:36:41;20.02;;;13.13;;
31402;SDS011;18039;52.188;21.024;2022-10-16T06:39:10;19.75;;;13.07;;
31402;SDS011;18039;52.188;21.024;2022-10-16T06:41:37;23.88;;;13.93;;
31402;SDS011;18039;52.188;21.024;2022-10-16T06:44:14;26.23;;;13.60;;
31402;SDS011;18039;52.188;21.024;2022-10-16T06:46:42;25.15;;;13.43;;
31402;SDS011;18039;52.188;21.024;2022-10-16T06:49:09;24.55;;;13.32;;
31402;SDS011;18039;52.188;21.024;2022-10-16T06:51:36;25.67;;;13.93;;
31402;SDS011;18039;52.188;21.024;2022-10-16T06:54:09;24.10;;;14.00;;
31402;SDS011;18039;52.188;21.024;2022-10-16T06:56:36;22.05;;;13.27;;
31402;SDS011;18039;52.188;21.024;2022-10-16T06:59:04;24.58;;;13.18;;
31402;SDS011;18039;52.188;21.024;2022-10-16T07:01:49;20.02;;;12.90;;
31402;SDS011;18039;52.188;21.024;2022-10-16T07:04:16;21.90;;;13.13;;
31402;SDS011;18039;52.188;21.024;2022-10-16T07:06:43;21.85;;;13.05;;
31402;SDS011;18039;52.188;21.024;2022-10-16T07:09:11;22.88;;;13.40;;
31402;SDS011;18039;52.188;21.024;2022-10-16T07:11:39;24.40;;;14.07;;
31402;SDS011;18039;52.188;21.024;2022-10-16T07:14:15;18.70;;;12.48;;
31402;SDS011;18039;52.188;21.024;2022-10-16T07:16:44;25.20;;;12.95;;
31402;SDS011;18039;52.188;21.024;2022-10-16T07:19:12;23.00;;;13.23;;
31402;SDS011;18039;52.188;21.024;2022-10-16T07:21:41;24.63;;;12.75;;
31402;SDS011;18039;52.188;21.024;2022-10-16T07:24:13;20.30;;;12.75;;
31402;SDS011;18039;52.188;21.024;2022-10-16T07:26:42;20.58;;;12.25;;
31402;SDS011;18039;52.188;21.024;2022-10-16T07:29:15;23.92;;;13.88;;
31402;SDS011;18039;52.188;21.024;2022-10-16T07:31:44;21.10;;;12.60;;
31402;SDS011;18039;52.188;21.024;2022-10-16T07:34:13;26.65;;;12.98;;
31402;SDS011;18039;52.188;21.024;2022-10-16T07:36:41;21.13;;;13.52;;
31402;SDS011;18039;52.188;21.024;2022-10-16T07:39:09;19.52;;;13.10;;
31402;SDS011;18039;52.188;21.024;2022-10-16T07:41:36;20.85;;;12.20;;
31402;SDS011;18039;52.188;21.024;2022-10-16T07:44:04;23.67;;;12.82;;
31402;SDS011;18039;52.188;21.024;2022-10-16T07:46:32;23.25;;;13.30;;
31402;SDS011;18039;52.188;21.024;2022-10-16T07:49:00;21.25;;;12.70;;
31402;SDS011;18039;52.188;21.024;2022-10-16T07:51:28;24.13;;;12.02;;
31402;SDS011;18039;52.188;21.024;2022-10-16T07:53:55;17.50;;;11.70;;
31402;SDS011;18039;52.188;21.024;2022-10-16T07:56:22;21.08;;;12.40;;
31402;SDS011;18039;52.188;21.024;2022-10-16T07:58:50;18.60;;;12.88;;
31402;SDS011;18039;52.188;21.024;2022-10-16T08:01:18;18.38;;;11.68;;
31402;SDS011;18039;52.188;21.024;2022-10-16T08:03:49;19.23;;;12.43;;
31402;SDS011;18039;52.188;21.024;2022-10-16T08:06:18;18.73;;;11.52;;
31402;SDS011;18039;52.188;21.024;2022-10-16T08:08:54;16.00;;;11.18;;
31402;SDS011;18039;52.188;21.024;2022-10-16T08:11:22;19.70;;;12.05;;
31402;SDS011;18039;52.188;21.024;2022-10-16T08:13:51;18.52;;;11.88;;
31402;SDS011;18039;52.188;21.024;2022-10-16T08:16:18;20.38;;;11.85;;
31402;SDS011;18039;52.188;21.024;2022-10-16T08:18:46;18.98;;;11.82;;
31402;SDS011;18039;52.188;21.024;2022-10-16T08:21:14;21.08;;;11.15;;
31402;SDS011;18039;52.188;21.024;2022-10-16T08:23:47;19.85;;;11.68;;
31402;SDS011;18039;52.188;21.024;2022-10-16T08:26:23;19.75;;;11.73;;
31402;SDS011;18039;52.188;21.024;2022-10-16T08:28:51;20.83;;;12.68;;
31402;SDS011;18039;52.188;21.024;2022-10-16T08:31:19;17.10;;;11.85;;
31402;SDS011;18039;52.188;21.024;2022-10-16T08:33:47;20.05;;;10.90;;
31402;SDS011;18039;52.188;21.024;2022-10-16T08:36:15;18.52;;;11.52;;
31402;SDS011;18039;52.188;21.024;2022-10-16T08:38:43;19.98;;;11.90;;
31402;SDS011;18039;52.188;21.024;2022-10-16T08:49:07;17.27;;;10.43;;
31402;SDS011;18039;52.188;21.024;2022-10-16T08:51:39;17.38;;;11.07;;
31402;SDS011;18039;52.188;21.024;2022-10-16T08:57:11;15.43;;;10.65;;
31402;SDS011;18039;52.188;21.024;2022-10-16T08:59:45;16.33;;;11.35;;
31402;SDS011;18039;52.188;21.024;2022-10-16T09:02:23;17.65;;;10.55;;
31402;SDS011;18039;52.188;21.024;2022-10-16T09:13:23;20.10;;;10.80;;
31402;SDS011;18039;52.188;21.024;2022-10-16T09:19:33;15.35;;;10.20;;
31402;SDS011;18039;52.188;21.024;2022-10-16T09:22:14;16.70;;;9.45;;
31402;SDS011;18039;52.188;21.024;2022-10-16T09:24:43;20.42;;;10.88;;
31402;SDS011;18039;52.188;21.024;2022-10-16T09:27:13;16.77;;;10.35;;
31402;SDS011;18039;52.188;21.024;2022-10-16T09:29:41;14.85;;;10.15;;
31402;SDS011;18039;52.188;21.024;2022-10-16T09:32:12;16.02;;;9.80;;
31402;SDS011;18039;52.188;21.024;2022-10-16T09:34:52;14.45;;;10.20;;
31402;SDS011;18039;52.188;21.024;2022-10-16T09:37:23;19.48;;;9.63;;
31402;SDS011;18039;52.188;21.024;2022-10-16T09:39:53;16.58;;;10.25;;
31402;SDS011;18039;52.188;21.024;2022-10-16T09:42:22;15.50;;;10.18;;
31402;SDS011;18039;52.188;21.024;2022-10-16T09:44:55;20.35;;;10.45;;
31402;SDS011;18039;52.188;21.024;2022-10-16T09:47:25;16.92;;;10.23;;
31402;SDS011;18039;52.188;21.024;2022-10-16T09:49:55;17.38;;;10.43;;
31402;SDS011;18039;52.188;21.024;2022-10-16T09:52:29;13.48;;;9.75;;
31402;SDS011;18039;52.188;21.024;2022-10-16T09:54:58;17.83;;;10.20;;
31402;SDS011;18039;52.188;21.024;2022-10-16T09:57:51;19.63;;;10.20;;
31402;SDS011;18039;52.188;21.024;2022-10-16T10:00:20;13.70;;;9.70;;
31402;SDS011;18039;52.188;21.024;2022-10-16T10:02:48;19.58;;;10.68;;
31402;SDS011;18039;52.188;21.024;2022-10-16T10:05:17;15.52;;;10.20;;
31402;SDS011;18039;52.188;21.024;2022-10-16T10:07:53;18.33;;;9.32;;
31402;SDS011;18039;52.188;21.024;2022-10-16T10:10:29;17.23;;;10.75;;
31402;SDS011;18039;52.188;21.024;2022-10-16T10:12:58;13.02;;;8.90;;
31402;SDS011;18039;52.188;21.024;2022-10-16T10:15:27;15.02;;;9.90;;
31402;SDS011;18039;52.188;21.024;2022-10-16T10:18:00;14.07;;;9.30;;
31402;SDS011;18039;52.188;21.024;2022-10-16T10:20:33;18.90;;;9.75;;
31402;SDS011;18039;52.188;21.024;2022-10-16T10:23:18;23.15;;;9.27;;
31402;SDS011;18039;52.188;21.024;2022-10-16T10:25:49;14.13;;;9.50;;
31402;SDS011;18039;52.188;21.024;2022-10-16T10:31:25;19.02;;;9.23;;
31402;SDS011;18039;52.188;21.024;2022-10-16T10:36:44;15.23;;;8.88;;
31402;SDS011;18039;52.188;21.024;2022-10-16T10:39:25;16.98;;;9.00;;
31402;SDS011;18039;52.188;21.024;2022-10-16T10:50:43;13.35;;;8.77;;
31402;SDS011;18039;52.188;21.024;2022-10-16T10:56:15;16.23;;;8.80;;
31402;SDS011;18039;52.188;21.024;2022-10-16T11:06:47;13.10;;;8.75;;
31402;SDS011;18039;52.188;21.024;2022-10-16T11:09:30;14.18;;;9.00;;
31402;SDS011;18039;52.188;21.024;2022-10-16T11:17:13;16.40;;;9.07;;
31402;SDS011;18039;52.188;21.024;2022-10-16T11:20:18;11.15;;;7.65;;
31402;SDS011;18039;52.188;21.024;2022-10-16T11:25:30;10.20;;;8.10;;
31402;SDS011;18039;52.188;21.024;2022-10-16T11:28:10;16.95;;;8.98;;
31402;SDS011;18039;52.188;21.024;2022-10-16T11:36:28;17.15;;;8.45;;
31402;SDS011;18039;52.188;21.024;2022-10-16T11:53:23;12.90;;;8.13;;
31402;SDS011;18039;52.188;21.024;2022-10-16T11:56:03;11.73;;;7.93;;
31402;SDS011;18039;52.188;21.024;2022-10-16T11:58:35;10.60;;;8.02;;
31402;SDS011;18039;52.188;21.024;2022-10-16T12:01:19;13.65;;;8.82;;
31402;SDS011;18039;52.188;21.024;2022-10-16T12:09:34;17.15;;;8.85;;
31402;SDS011;18039;52.188;21.024;2022-10-16T12:12:23;17.40;;;8.65;;
31402;SDS011;18039;52.188;21.024;2022-10-16T12:15:17;19.55;;;9.02;;
31402;SDS011;18039;52.188;21.024;2022-10-16T12:18:00;17.13;;;8.57;;
31402;SDS011;18039;52.188;21.024;2022-10-16T12:20:31;12.30;;;8.43;;
31402;SDS011;18039;52.188;21.024;2022-10-16T12:23:02;12.20;;;8.90;;
31402;SDS011;18039;52.188;21.024;2022-10-16T12:25:35;11.88;;;8.25;;
31402;SDS011;18039;52.188;21.024;2022-10-16T12:28:16;14.20;;;9.10;;
31402;SDS011;18039;52.188;21.024;2022-10-16T12:31:06;12.27;;;9.00;;
31402;SDS011;18039;52.188;21.024;2022-10-16T12:33:37;15.18;;;8.57;;
31402;SDS011;18039;52.188;21.024;2022-10-16T12:36:26;12.07;;;8.63;;
31402;SDS011;18039;52.188;21.024;2022-10-16T12:39:03;13.90;;;8.75;;
31402;SDS011;18039;52.188;21.024;2022-10-16T12:41:34;12.50;;;8.77;;
31402;SDS011;18039;52.188;21.024;2022-10-16T12:44:20;12.93;;;8.05;;
31402;SDS011;18039;52.188;21.024;2022-10-16T12:46:52;11.27;;;8.30;;
31402;SDS011;18039;52.188;21.024;2022-10-16T12:52:03;12.02;;;8.35;;
31402;SDS011;18039;52.188;21.024;2022-10-16T12:54:34;18.02;;;9.68;;
31402;SDS011;18039;52.188;21.024;2022-10-16T13:02:54;13.48;;;8.65;;
31402;SDS011;18039;52.188;21.024;2022-10-16T13:11:14;10.80;;;7.78;;
31402;SDS011;18039;52.188;21.024;2022-10-16T13:13:51;10.77;;;7.22;;
31402;SDS011;18039;52.188;21.024;2022-10-16T13:19:54;11.15;;;7.82;;
31402;SDS011;18039;52.188;21.024;2022-10-16T13:22:45;12.38;;;7.90;;
31402;SDS011;18039;52.188;21.024;2022-10-16T13:27:59;10.45;;;7.30;;
31402;SDS011;18039;52.188;21.024;2022-10-16T13:30:28;12.82;;;7.65;;
31402;SDS011;18039;52.188;21.024;2022-10-16T13:33:01;13.52;;;7.95;;
31402;SDS011;18039;52.188;21.024;2022-10-16T13:35:31;12.18;;;7.40;;
31402;SDS011;18039;52.188;21.024;2022-10-16T13:38:14;15.73;;;8.63;;
31402;SDS011;18039;52.188;21.024;2022-10-16T13:40:52;10.75;;;7.70;;
31402;SDS011;18039;52.188;21.024;2022-10-16T13:43:23;14.27;;;7.88;;
31402;SDS011;18039;52.188;21.024;2022-10-16T13:45:58;12.23;;;8.10;;
31402;SDS011;18039;52.188;21.024;2022-10-16T13:48:33;12.68;;;8.43;;
31402;SDS011;18039;52.188;21.024;2022-10-16T13:51:17;13.48;;;8.25;;
31402;SDS011;18039;52.188;21.024;2022-10-16T13:53:45;11.30;;;8.07;;
31402;SDS011;18039;52.188;21.024;2022-10-16T13:56:17;13.25;;;7.90;;
31402;SDS011;18039;52.188;21.024;2022-10-16T13:58:46;14.30;;;8.70;;
31402;SDS011;18039;52.188;21.024;2022-10-16T14:01:24;13.30;;;8.30;;
31402;SDS011;18039;52.188;21.024;2022-10-16T14:04:04;13.98;;;8.13;;
31402;SDS011;18039;52.188;21.024;2022-10-16T14:06:34;17.02;;;7.93;;
31402;SDS011;18039;52.188;21.024;2022-10-16T14:09:07;15.98;;;8.68;;
31402;SDS011;18039;52.188;21.024;2022-10-16T14:12:14;12.93;;;6.88;;
31402;SDS011;18039;52.188;21.024;2022-10-16T14:14:41;15.18;;;8.20;;
31402;SDS011;18039;52.188;21.024;2022-10-16T14:17:15;14.85;;;9.02;;
31402;SDS011;18039;52.188;21.024;2022-10-16T14:19:48;12.13;;;7.15;;
31402;SDS011;18039;52.188;21.024;2022-10-16T14:22:38;12.20;;;8.15;;
31402;SDS011;18039;52.188;21.024;2022-10-16T14:27:56;11.68;;;7.57;;
31402;SDS011;18039;52.188;21.024;2022-10-16T14:30:33;12.60;;;7.35;;
31402;SDS011;18039;52.188;21.024;2022-10-16T14:33:03;14.80;;;8.45;;
31402;SDS011;18039;52.188;21.024;2022-10-16T14:35:35;13.35;;;7.93;;
31402;SDS011;18039;52.188;21.024;2022-10-16T14:38:05;13.70;;;8.00;;
31402;SDS011;18039;52.188;21.024;2022-10-16T14:40:46;14.90;;;8.35;;
31402;SDS011;18039;52.188;21.024;2022-10-16T14:43:19;13.85;;;7.72;;
31402;SDS011;18039;52.188;21.024;2022-10-16T14:45:52;14.88;;;8.77;;
31402;SDS011;18039;52.188;21.024;2022-10-16T14:48:22;15.60;;;8.90;;
31402;SDS011;18039;52.188;21.024;2022-10-16T14:50:51;16.63;;;8.23;;
31402;SDS011;18039;52.188;21.024;2022-10-16T14:53:18;17.30;;;8.40;;
31402;SDS011;18039;52.188;21.024;2022-10-16T14:55:45;14.02;;;8.38;;
31402;SDS011;18039;52.188;21.024;2022-10-16T14:58:19;16.35;;;9.38;;
31402;SDS011;18039;52.188;21.024;2022-10-16T15:00:48;16.70;;;8.98;;
31402;SDS011;18039;52.188;21.024;2022-10-16T15:03:16;13.43;;;8.20;;
31402;SDS011;18039;52.188;21.024;2022-10-16T15:05:43;11.45;;;8.23;;
31402;SDS011;18039;52.188;21.024;2022-10-16T15:08:10;13.40;;;8.23;;
31402;SDS011;18039;52.188;21.024;2022-10-16T15:10:42;14.45;;;8.75;;
31402;SDS011;18039;52.188;21.024;2022-10-16T15:13:13;13.00;;;8.93;;
31402;SDS011;18039;52.188;21.024;2022-10-16T15:15:44;13.82;;;8.73;;
31402;SDS011;18039;52.188;21.024;2022-10-16T15:18:12;13.38;;;8.93;;
31402;SDS011;18039;52.188;21.024;2022-10-16T15:20:42;14.20;;;8.68;;
31402;SDS011;18039;52.188;21.024;2022-10-16T15:23:13;13.60;;;9.02;;
31402;SDS011;18039;52.188;21.024;2022-10-16T15:25:43;15.38;;;8.75;;
31402;SDS011;18039;52.188;21.024;2022-10-16T15:28:11;13.50;;;8.63;;
31402;SDS011;18039;52.188;21.024;2022-10-16T15:30:40;17.48;;;8.60;;
31402;SDS011;18039;52.188;21.024;2022-10-16T15:33:15;14.15;;;8.57;;
31402;SDS011;18039;52.188;21.024;2022-10-16T15:35:48;17.27;;;8.77;;
31402;SDS011;18039;52.188;21.024;2022-10-16T15:38:16;12.63;;;9.20;;
31402;SDS011;18039;52.188;21.024;2022-10-16T15:40:45;14.75;;;8.75;;
31402;SDS011;18039;52.188;21.024;2022-10-16T15:43:12;13.30;;;9.07;;
31402;SDS011;18039;52.188;21.024;2022-10-16T15:45:40;15.85;;;9.77;;
31402;SDS011;18039;52.188;21.024;2022-10-16T15:48:11;13.45;;;9.10;;
31402;SDS011;18039;52.188;21.024;2022-10-16T15:50:40;16.90;;;8.98;;
31402;SDS011;18039;52.188;21.024;2022-10-16T15:53:07;12.43;;;8.45;;
31402;SDS011;18039;52.188;21.024;2022-10-16T15:55:35;15.52;;;9.25;;
31402;SDS011;18039;52.188;21.024;2022-10-16T15:58:04;13.23;;;8.38;;
31402;SDS011;18039;52.188;21.024;2022-10-16T16:00:32;14.32;;;9.57;;
31402;SDS011;18039;52.188;21.024;2022-10-16T16:02:59;18.50;;;10.35;;
31402;SDS011;18039;52.188;21.024;2022-10-16T16:05:27;14.75;;;9.52;;
31402;SDS011;18039;52.188;21.024;2022-10-16T16:07:54;16.48;;;10.27;;
31402;SDS011;18039;52.188;21.024;2022-10-16T16:10:21;17.05;;;9.43;;
31402;SDS011;18039;52.188;21.024;2022-10-16T16:12:48;18.80;;;10.18;;
31402;SDS011;18039;52.188;21.024;2022-10-16T16:15:19;15.80;;;9.13;;
31402;SDS011;18039;52.188;21.024;2022-10-16T16:17:48;14.13;;;9.57;;
31402;SDS011;18039;52.188;21.024;2022-10-16T16:20:16;15.30;;;10.13;;
31402;SDS011;18039;52.188;21.024;2022-10-16T16:22:43;18.30;;;9.23;;
31402;SDS011;18039;52.188;21.024;2022-10-16T16:25:10;17.95;;;10.18;;
31402;SDS011;18039;52.188;21.024;2022-10-16T16:27:37;15.35;;;10.55;;
31402;SDS011;18039;52.188;21.024;2022-10-16T16:30:06;16.30;;;9.93;;
31402;SDS011;18039;52.188;21.024;2022-10-16T16:32:34;18.15;;;9.88;;
31402;SDS011;18039;52.188;21.024;2022-10-16T16:35:02;13.60;;;10.02;;
31402;SDS011;18039;52.188;21.024;2022-10-16T16:37:30;13.30;;;9.15;;
31402;SDS011;18039;52.188;21.024;2022-10-16T16:39:58;15.45;;;9.93;;
31402;SDS011;18039;52.188;21.024;2022-10-16T16:42:26;19.83;;;10.30;;
31402;SDS011;18039;52.188;21.024;2022-10-16T16:44:54;21.08;;;11.02;;